sensor_id;sensor_type;location;lat;lon;timestamp;temperature;humidity
10864;DHT22;5485;37.558;126.950;2023-05-14T00:01:14;21.60;1.00
10864;DHT22;5485;37.558;126.950;2023-05-14T00:03:41;21.40;1.00
10864;DHT22;5485;37.558;126.950;2023-05-14T00:06:08;22.00;1.00
10864;DHT22;5485;37.558;126.950;2023-05-14T00:08:35;22.20;1.00
10864;DHT22;5485;37.558;126.950;2023-05-14T00:11:02;22.30;1.00
10864;DHT22;5485;37.558;126.950;2023-05-14T00:13:29;22.30;1.00
10864;DHT22;5485;37.558;126.950;2023-05-14T00:15:56;22.20;1.00
10864;DHT22;5485;37.558;126.950;2023-05-14T00:18:23;22.50;1.00
10864;DHT22;5485;37.558;126.950;2023-05-14T00:20:50;22.60;1.00
10864;DHT22;5485;37.558;126.950;2023-05-14T00:23:20;22.50;1.00
10864;DHT22;5485;37.558;126.950;2023-05-14T00:25:48;22.60;1.00
10864;DHT22;5485;37.558;126.950;2023-05-14T00:28:15;22.60;1.00
10864;DHT22;5485;37.558;126.950;2023-05-14T00:30:42;22.40;1.00
10864;DHT22;5485;37.558;126.950;2023-05-14T00:33:09;22.50;1.00
10864;DHT22;5485;37.558;126.950;2023-05-14T00:35:36;22.60;1.00
10864;DHT22;5485;37.558;126.950;2023-05-14T00:38:03;22.40;1.00
10864;DHT22;5485;37.558;126.950;2023-05-14T00:40:30;22.50;1.00
10864;DHT22;5485;37.558;126.950;2023-05-14T00:42:57;22.50;1.00
10864;DHT22;5485;37.558;126.950;2023-05-14T00:45:24;22.50;1.00
10864;DHT22;5485;37.558;126.950;2023-05-14T00:47:51;22.70;1.00
10864;DHT22;5485;37.558;126.950;2023-05-14T00:50:19;22.40;1.00
10864;DHT22;5485;37.558;126.950;2023-05-14T00:52:46;22.00;1.00
10864;DHT22;5485;37.558;126.950;2023-05-14T00:55:15;22.00;1.00
10864;DHT22;5485;37.558;126.950;2023-05-14T00:57:42;21.80;1.00
10864;DHT22;5485;37.558;126.950;2023-05-14T01:00:11;22.20;1.00
10864;DHT22;5485;37.558;126.950;2023-05-14T01:02:38;23.00;1.00
10864;DHT22;5485;37.558;126.950;2023-05-14T01:05:05;23.10;1.00
10864;DHT22;5485;37.558;126.950;2023-05-14T01:07:47;23.50;1.00
10864;DHT22;5485;37.558;126.950;2023-05-14T01:10:31;24.30;1.00
10864;DHT22;5485;37.558;126.950;2023-05-14T01:13:14;24.60;1.00
10864;DHT22;5485;37.558;126.950;2023-05-14T01:15:47;24.10;1.00
10864;DHT22;5485;37.558;126.950;2023-05-14T01:18:17;23.80;1.00
10864;DHT22;5485;37.558;126.950;2023-05-14T01:20:45;23.80;1.00
10864;DHT22;5485;37.558;126.950;2023-05-14T01:23:15;24.00;1.00
10864;DHT22;5485;37.558;126.950;2023-05-14T01:25:42;23.80;1.00
10864;DHT22;5485;37.558;126.950;2023-05-14T01:28:19;23.90;1.00
10864;DHT22;5485;37.558;126.950;2023-05-14T01:33:54;24.00;1.00
10864;DHT22;5485;37.558;126.950;2023-05-14T01:36:23;24.40;1.00
10864;DHT22;5485;37.558;126.950;2023-05-14T01:38:50;25.40;1.00
10864;DHT22;5485;37.558;126.950;2023-05-14T01:41:18;25.80;1.00
10864;DHT22;5485;37.558;126.950;2023-05-14T01:43:47;26.30;1.00
10864;DHT22;5485;37.558;126.950;2023-05-14T01:46:20;26.30;1.00
10864;DHT22;5485;37.558;126.950;2023-05-14T01:48:49;25.90;1.00
10864;DHT22;5485;37.558;126.950;2023-05-14T01:51:16;25.50;1.00
10864;DHT22;5485;37.558;126.950;2023-05-14T01:53:43;24.10;1.00
10864;DHT22;5485;37.558;126.950;2023-05-14T01:56:10;24.10;1.00
10864;DHT22;5485;37.558;126.950;2023-05-14T01:58:36;24.20;1.00
10864;DHT22;5485;37.558;126.950;2023-05-14T02:01:03;24.10;1.00
10864;DHT22;5485;37.558;126.950;2023-05-14T02:03:30;23.80;1.00
10864;DHT22;5485;37.558;126.950;2023-05-14T02:05:57;23.80;1.00
10864;DHT22;5485;37.558;126.950;2023-05-14T02:08:24;23.80;1.00
10864;DHT22;5485;37.558;126.950;2023-05-14T02:10:51;24.20;1.00
10864;DHT22;5485;37.558;126.950;2023-05-14T02:13:18;24.20;1.00
10864;DHT22;5485;37.558;126.950;2023-05-14T02:15:46;24.30;1.00
10864;DHT22;5485;37.558;126.950;2023-05-14T02:18:12;24.30;1.00
10864;DHT22;5485;37.558;126.950;2023-05-14T02:20:39;24.30;1.00
10864;DHT22;5485;37.558;126.950;2023-05-14T02:23:06;25.20;1.00
10864;DHT22;5485;37.558;126.950;2023-05-14T02:25:33;25.40;1.00
10864;DHT22;5485;37.558;126.950;2023-05-14T02:28:00;25.30;1.00
10864;DHT22;5485;37.558;126.950;2023-05-14T02:30:27;25.40;1.00
10864;DHT22;5485;37.558;126.950;2023-05-14T02:32:55;25.50;1.00
10864;DHT22;5485;37.558;126.950;2023-05-14T02:35:22;26.30;1.00
10864;DHT22;5485;37.558;126.950;2023-05-14T02:37:49;26.30;1.00
10864;DHT22;5485;37.558;126.950;2023-05-14T02:40:16;26.30;1.00
10864;DHT22;5485;37.558;126.950;2023-05-14T02:42:42;26.10;1.00
10864;DHT22;5485;37.558;126.950;2023-05-14T02:45:14;26.20;1.00
10864;DHT22;5485;37.558;126.950;2023-05-14T02:47:42;26.30;1.00
10864;DHT22;5485;37.558;126.950;2023-05-14T02:50:09;26.20;1.00
10864;DHT22;5485;37.558;126.950;2023-05-14T02:52:36;26.10;1.00
10864;DHT22;5485;37.558;126.950;2023-05-14T02:55:05;25.60;1.00
10864;DHT22;5485;37.558;126.950;2023-05-14T02:57:32;25.70;1.00
10864;DHT22;5485;37.558;126.950;2023-05-14T02:59:58;26.10;1.00
10864;DHT22;5485;37.558;126.950;2023-05-14T03:02:25;26.30;1.00
10864;DHT22;5485;37.558;126.950;2023-05-14T03:04:52;26.50;1.00
10864;DHT22;5485;37.558;126.950;2023-05-14T03:07:19;26.30;1.00
10864;DHT22;5485;37.558;126.950;2023-05-14T03:09:46;25.70;1.00
10864;DHT22;5485;37.558;126.950;2023-05-14T03:12:13;24.60;1.00
10864;DHT22;5485;37.558;126.950;2023-05-14T03:14:40;24.30;1.00
10864;DHT22;5485;37.558;126.950;2023-05-14T03:17:07;23.70;1.00
10864;DHT22;5485;37.558;126.950;2023-05-14T03:19:34;23.50;1.00
10864;DHT22;5485;37.558;126.950;2023-05-14T03:22:01;23.20;1.00
10864;DHT22;5485;37.558;126.950;2023-05-14T03:24:28;23.50;1.00
10864;DHT22;5485;37.558;126.950;2023-05-14T03:26:56;23.30;1.00
10864;DHT22;5485;37.558;126.950;2023-05-14T03:29:23;22.90;1.00
10864;DHT22;5485;37.558;126.950;2023-05-14T03:31:50;22.70;1.00
10864;DHT22;5485;37.558;126.950;2023-05-14T03:34:17;22.70;1.00
10864;DHT22;5485;37.558;126.950;2023-05-14T03:36:44;22.50;1.00
10864;DHT22;5485;37.558;126.950;2023-05-14T03:39:11;22.40;1.00
10864;DHT22;5485;37.558;126.950;2023-05-14T03:41:41;22.50;1.00
10864;DHT22;5485;37.558;126.950;2023-05-14T03:44:07;22.50;1.00
10864;DHT22;5485;37.558;126.950;2023-05-14T03:46:34;22.60;1.00
10864;DHT22;5485;37.558;126.950;2023-05-14T03:49:01;23.00;1.00
10864;DHT22;5485;37.558;126.950;2023-05-14T03:51:28;23.30;1.00
10864;DHT22;5485;37.558;126.950;2023-05-14T03:53:55;23.60;1.00
10864;DHT22;5485;37.558;126.950;2023-05-14T03:56:23;23.90;1.00
10864;DHT22;5485;37.558;126.950;2023-05-14T03:58:52;24.00;1.00
10864;DHT22;5485;37.558;126.950;2023-05-14T04:01:18;24.00;1.00
10864;DHT22;5485;37.558;126.950;2023-05-14T04:03:45;23.50;1.00
10864;DHT22;5485;37.558;126.950;2023-05-14T04:06:12;23.40;1.00
10864;DHT22;5485;37.558;126.950;2023-05-14T04:08:39;23.50;1.00
10864;DHT22;5485;37.558;126.950;2023-05-14T04:11:06;23.20;1.00
10864;DHT22;5485;37.558;126.950;2023-05-14T04:13:33;23.30;1.00
10864;DHT22;5485;37.558;126.950;2023-05-14T04:16:03;23.40;1.00
10864;DHT22;5485;37.558;126.950;2023-05-14T04:18:30;23.40;1.00
10864;DHT22;5485;37.558;126.950;2023-05-14T04:21:01;23.40;1.00
10864;DHT22;5485;37.558;126.950;2023-05-14T04:23:28;23.20;1.00
10864;DHT22;5485;37.558;126.950;2023-05-14T04:25:57;23.20;1.00
10864;DHT22;5485;37.558;126.950;2023-05-14T04:28:24;23.10;1.00
10864;DHT22;5485;37.558;126.950;2023-05-14T04:30:52;23.20;1.00
10864;DHT22;5485;37.558;126.950;2023-05-14T04:33:19;23.00;1.00
10864;DHT22;5485;37.558;126.950;2023-05-14T04:35:46;23.10;1.00
10864;DHT22;5485;37.558;126.950;2023-05-14T04:38:13;23.30;1.00
10864;DHT22;5485;37.558;126.950;2023-05-14T04:40:41;23.30;1.00
10864;DHT22;5485;37.558;126.950;2023-05-14T04:43:08;23.10;1.00
10864;DHT22;5485;37.558;126.950;2023-05-14T04:45:35;22.90;1.00
10864;DHT22;5485;37.558;126.950;2023-05-14T04:48:03;23.00;1.00
10864;DHT22;5485;37.558;126.950;2023-05-14T04:50:34;23.00;1.00
10864;DHT22;5485;37.558;126.950;2023-05-14T04:53:01;23.00;1.00
10864;DHT22;5485;37.558;126.950;2023-05-14T04:55:28;22.50;1.00
10864;DHT22;5485;37.558;126.950;2023-05-14T04:57:55;22.70;1.00
10864;DHT22;5485;37.558;126.950;2023-05-14T05:00:22;23.00;1.00
10864;DHT22;5485;37.558;126.950;2023-05-14T05:02:49;23.20;1.00
10864;DHT22;5485;37.558;126.950;2023-05-14T05:05:16;23.20;1.00
10864;DHT22;5485;37.558;126.950;2023-05-14T05:07:43;22.80;1.00
10864;DHT22;5485;37.558;126.950;2023-05-14T05:10:10;22.90;1.00
10864;DHT22;5485;37.558;126.950;2023-05-14T05:12:37;22.90;1.00
10864;DHT22;5485;37.558;126.950;2023-05-14T05:15:05;23.20;1.00
10864;DHT22;5485;37.558;126.950;2023-05-14T05:17:32;23.20;1.00
10864;DHT22;5485;37.558;126.950;2023-05-14T05:19:59;23.10;1.00
10864;DHT22;5485;37.558;126.950;2023-05-14T05:22:31;23.30;1.00
10864;DHT22;5485;37.558;126.950;2023-05-14T05:25:00;23.50;1.00
10864;DHT22;5485;37.558;126.950;2023-05-14T05:27:27;23.30;1.00
10864;DHT22;5485;37.558;126.950;2023-05-14T05:29:53;23.30;1.00
10864;DHT22;5485;37.558;126.950;2023-05-14T05:32:20;23.60;1.00
10864;DHT22;5485;37.558;126.950;2023-05-14T05:34:48;23.60;1.00
10864;DHT22;5485;37.558;126.950;2023-05-14T05:37:17;23.50;1.00
10864;DHT22;5485;37.558;126.950;2023-05-14T05:39:44;23.50;1.00
10864;DHT22;5485;37.558;126.950;2023-05-14T05:42:11;23.40;1.00
10864;DHT22;5485;37.558;126.950;2023-05-14T05:44:38;23.40;1.00
10864;DHT22;5485;37.558;126.950;2023-05-14T05:47:05;23.30;1.00
10864;DHT22;5485;37.558;126.950;2023-05-14T05:49:33;23.50;1.00
10864;DHT22;5485;37.558;126.950;2023-05-14T05:52:02;23.70;1.00
10864;DHT22;5485;37.558;126.950;2023-05-14T05:54:30;23.40;1.00
10864;DHT22;5485;37.558;126.950;2023-05-14T05:57:00;23.10;1.00
10864;DHT22;5485;37.558;126.950;2023-05-14T05:59:26;22.90;1.00
10864;DHT22;5485;37.558;126.950;2023-05-14T06:01:54;22.70;1.00
10864;DHT22;5485;37.558;126.950;2023-05-14T06:04:20;22.40;1.00
10864;DHT22;5485;37.558;126.950;2023-05-14T06:06:47;22.60;1.00
10864;DHT22;5485;37.558;126.950;2023-05-14T06:09:14;22.60;1.00
10864;DHT22;5485;37.558;126.950;2023-05-14T06:11:41;22.60;1.00
10864;DHT22;5485;37.558;126.950;2023-05-14T06:14:08;22.90;1.00
10864;DHT22;5485;37.558;126.950;2023-05-14T06:16:35;23.00;1.00
10864;DHT22;5485;37.558;126.950;2023-05-14T06:19:02;23.00;1.00
10864;DHT22;5485;37.558;126.950;2023-05-14T06:21:29;22.90;1.00
10864;DHT22;5485;37.558;126.950;2023-05-14T06:23:56;22.80;1.00
10864;DHT22;5485;37.558;126.950;2023-05-14T06:26:23;23.00;1.00
10864;DHT22;5485;37.558;126.950;2023-05-14T06:28:51;23.30;1.00
10864;DHT22;5485;37.558;126.950;2023-05-14T06:31:18;23.30;1.00
10864;DHT22;5485;37.558;126.950;2023-05-14T06:33:45;23.30;1.00
10864;DHT22;5485;37.558;126.950;2023-05-14T06:36:12;23.30;1.00
10864;DHT22;5485;37.558;126.950;2023-05-14T06:38:39;23.20;1.00
10864;DHT22;5485;37.558;126.950;2023-05-14T06:41:06;22.90;1.00
10864;DHT22;5485;37.558;126.950;2023-05-14T06:43:33;22.80;1.00
10864;DHT22;5485;37.558;126.950;2023-05-14T06:46:00;22.90;1.00
10864;DHT22;5485;37.558;126.950;2023-05-14T06:48:27;22.80;1.00
10864;DHT22;5485;37.558;126.950;2023-05-14T06:50:54;23.10;1.00
10864;DHT22;5485;37.558;126.950;2023-05-14T06:53:21;23.10;1.00
10864;DHT22;5485;37.558;126.950;2023-05-14T06:55:49;23.10;1.00
10864;DHT22;5485;37.558;126.950;2023-05-14T06:58:16;23.00;1.00
10864;DHT22;5485;37.558;126.950;2023-05-14T07:00:43;23.00;1.00
10864;DHT22;5485;37.558;126.950;2023-05-14T07:03:10;23.00;1.00
10864;DHT22;5485;37.558;126.950;2023-05-14T07:05:37;23.00;1.00
10864;DHT22;5485;37.558;126.950;2023-05-14T07:08:06;23.00;1.00
10864;DHT22;5485;37.558;126.950;2023-05-14T07:10:33;22.50;1.00
10864;DHT22;5485;37.558;126.950;2023-05-14T07:12:59;22.60;1.00
10864;DHT22;5485;37.558;126.950;2023-05-14T07:15:26;22.60;1.00
10864;DHT22;5485;37.558;126.950;2023-05-14T07:17:53;22.40;1.00
10864;DHT22;5485;37.558;126.950;2023-05-14T07:20:20;22.40;1.00
10864;DHT22;5485;37.558;126.950;2023-05-14T07:22:52;22.30;1.00
10864;DHT22;5485;37.558;126.950;2023-05-14T07:25:19;22.40;1.00
10864;DHT22;5485;37.558;126.950;2023-05-14T07:27:46;22.50;1.00
10864;DHT22;5485;37.558;126.950;2023-05-14T07:30:13;22.60;1.00
10864;DHT22;5485;37.558;126.950;2023-05-14T07:32:40;22.80;1.00
10864;DHT22;5485;37.558;126.950;2023-05-14T07:35:07;22.80;1.00
10864;DHT22;5485;37.558;126.950;2023-05-14T07:37:35;22.40;1.00
10864;DHT22;5485;37.558;126.950;2023-05-14T07:40:02;22.40;1.00
10864;DHT22;5485;37.558;126.950;2023-05-14T07:42:29;22.10;1.00
10864;DHT22;5485;37.558;126.950;2023-05-14T07:44:55;22.20;1.00
10864;DHT22;5485;37.558;126.950;2023-05-14T07:47:22;22.30;1.00
10864;DHT22;5485;37.558;126.950;2023-05-14T07:49:54;22.50;1.00
10864;DHT22;5485;37.558;126.950;2023-05-14T07:52:22;22.30;1.00
10864;DHT22;5485;37.558;126.950;2023-05-14T07:54:50;22.20;1.00
10864;DHT22;5485;37.558;126.950;2023-05-14T07:57:18;22.00;1.00
10864;DHT22;5485;37.558;126.950;2023-05-14T07:59:46;22.10;1.00
10864;DHT22;5485;37.558;126.950;2023-05-14T08:02:12;22.10;1.00
10864;DHT22;5485;37.558;126.950;2023-05-14T08:04:41;22.30;1.00
10864;DHT22;5485;37.558;126.950;2023-05-14T08:07:08;22.20;1.00
10864;DHT22;5485;37.558;126.950;2023-05-14T08:09:35;22.00;1.00
10864;DHT22;5485;37.558;126.950;2023-05-14T08:12:02;21.90;1.00
10864;DHT22;5485;37.558;126.950;2023-05-14T08:14:29;22.20;1.00
10864;DHT22;5485;37.558;126.950;2023-05-14T08:16:56;22.40;1.00
10864;DHT22;5485;37.558;126.950;2023-05-14T08:19:23;22.40;1.00
10864;DHT22;5485;37.558;126.950;2023-05-14T08:21:52;22.40;1.00
10864;DHT22;5485;37.558;126.950;2023-05-14T08:24:19;22.20;1.00
10864;DHT22;5485;37.558;126.950;2023-05-14T08:26:46;22.10;1.00
10864;DHT22;5485;37.558;126.950;2023-05-14T08:29:13;22.10;1.00
10864;DHT22;5485;37.558;126.950;2023-05-14T08:31:40;21.90;1.00
10864;DHT22;5485;37.558;126.950;2023-05-14T08:34:07;21.90;1.00
10864;DHT22;5485;37.558;126.950;2023-05-14T08:36:34;21.90;1.00
10864;DHT22;5485;37.558;126.950;2023-05-14T08:39:03;21.70;1.00
10864;DHT22;5485;37.558;126.950;2023-05-14T08:41:32;21.70;1.00
10864;DHT22;5485;37.558;126.950;2023-05-14T08:44:06;21.80;1.00
10864;DHT22;5485;37.558;126.950;2023-05-14T08:46:36;21.80;1.00
10864;DHT22;5485;37.558;126.950;2023-05-14T08:52:00;21.70;1.00
10864;DHT22;5485;37.558;126.950;2023-05-14T08:54:28;21.90;1.00
10864;DHT22;5485;37.558;126.950;2023-05-14T08:56:57;22.00;1.00
10864;DHT22;5485;37.558;126.950;2023-05-14T08:59:24;22.10;1.00
10864;DHT22;5485;37.558;126.950;2023-05-14T09:01:53;22.10;1.00
10864;DHT22;5485;37.558;126.950;2023-05-14T09:04:22;22.00;1.00
10864;DHT22;5485;37.558;126.950;2023-05-14T09:06:51;21.90;1.00
10864;DHT22;5485;37.558;126.950;2023-05-14T09:09:22;21.80;1.00
10864;DHT22;5485;37.558;126.950;2023-05-14T09:11:50;21.70;1.00
10864;DHT22;5485;37.558;126.950;2023-05-14T09:14:19;21.70;1.00
10864;DHT22;5485;37.558;126.950;2023-05-14T09:16:47;21.60;1.00
10864;DHT22;5485;37.558;126.950;2023-05-14T09:19:15;21.50;1.00
10864;DHT22;5485;37.558;126.950;2023-05-14T09:21:48;21.50;1.00
10864;DHT22;5485;37.558;126.950;2023-05-14T09:24:22;21.40;1.00
10864;DHT22;5485;37.558;126.950;2023-05-14T09:26:54;21.30;1.00
10864;DHT22;5485;37.558;126.950;2023-05-14T09:29:23;21.20;1.00
10864;DHT22;5485;37.558;126.950;2023-05-14T09:31:54;21.10;1.00
10864;DHT22;5485;37.558;126.950;2023-05-14T09:34:32;20.90;1.00
10864;DHT22;5485;37.558;126.950;2023-05-14T09:37:04;20.80;1.00
10864;DHT22;5485;37.558;126.950;2023-05-14T09:39:32;20.70;1.00
10864;DHT22;5485;37.558;126.950;2023-05-14T09:41:59;20.70;1.00
10864;DHT22;5485;37.558;126.950;2023-05-14T09:44:26;20.70;1.00
10864;DHT22;5485;37.558;126.950;2023-05-14T09:46:54;20.70;1.00
10864;DHT22;5485;37.558;126.950;2023-05-14T09:49:21;20.70;1.00
10864;DHT22;5485;37.558;126.950;2023-05-14T09:51:51;20.60;1.00
10864;DHT22;5485;37.558;126.950;2023-05-14T09:54:18;20.60;1.00
10864;DHT22;5485;37.558;126.950;2023-05-14T09:56:45;20.50;1.00
10864;DHT22;5485;37.558;126.950;2023-05-14T09:59:12;20.50;1.00
10864;DHT22;5485;37.558;126.950;2023-05-14T10:01:41;20.40;1.00
10864;DHT22;5485;37.558;126.950;2023-05-14T10:04:10;20.30;1.00
10864;DHT22;5485;37.558;126.950;2023-05-14T10:06:38;20.30;1.00
10864;DHT22;5485;37.558;126.950;2023-05-14T10:09:11;20.20;1.00
10864;DHT22;5485;37.558;126.950;2023-05-14T10:12:01;20.10;1.00
10864;DHT22;5485;37.558;126.950;2023-05-14T10:14:39;19.90;1.00
10864;DHT22;5485;37.558;126.950;2023-05-14T10:17:07;19.80;1.00
10864;DHT22;5485;37.558;126.950;2023-05-14T10:19:51;19.70;1.00
10864;DHT22;5485;37.558;126.950;2023-05-14T10:22:23;19.60;1.00
10864;DHT22;5485;37.558;126.950;2023-05-14T10:24:51;19.50;1.00
10864;DHT22;5485;37.558;126.950;2023-05-14T10:27:23;19.40;1.00
10864;DHT22;5485;37.558;126.950;2023-05-14T10:29:54;19.30;1.00
10864;DHT22;5485;37.558;126.950;2023-05-14T10:32:23;19.30;1.00
10864;DHT22;5485;37.558;126.950;2023-05-14T10:34:52;19.20;1.00
10864;DHT22;5485;37.558;126.950;2023-05-14T10:37:24;19.10;1.00
10864;DHT22;5485;37.558;126.950;2023-05-14T10:40:00;19.10;1.00
10864;DHT22;5485;37.558;126.950;2023-05-14T10:42:35;19.00;1.00
10864;DHT22;5485;37.558;126.950;2023-05-14T10:45:10;19.00;1.00
10864;DHT22;5485;37.558;126.950;2023-05-14T10:47:45;18.90;1.00
10864;DHT22;5485;37.558;126.950;2023-05-14T10:50:14;18.90;1.00
10864;DHT22;5485;37.558;126.950;2023-05-14T10:52:42;18.80;1.00
10864;DHT22;5485;37.558;126.950;2023-05-14T10:55:13;18.80;1.00
10864;DHT22;5485;37.558;126.950;2023-05-14T10:57:43;18.80;1.00
10864;DHT22;5485;37.558;126.950;2023-05-14T11:00:11;18.80;1.00
10864;DHT22;5485;37.558;126.950;2023-05-14T11:02:41;18.70;1.00
10864;DHT22;5485;37.558;126.950;2023-05-14T11:05:14;18.60;1.00
10864;DHT22;5485;37.558;126.950;2023-05-14T11:07:44;18.60;1.00
10864;DHT22;5485;37.558;126.950;2023-05-14T11:10:18;18.60;1.00
10864;DHT22;5485;37.558;126.950;2023-05-14T11:12:48;18.50;1.00
10864;DHT22;5485;37.558;126.950;2023-05-14T11:15:17;18.40;1.00
10864;DHT22;5485;37.558;126.950;2023-05-14T11:17:46;18.40;1.00
10864;DHT22;5485;37.558;126.950;2023-05-14T11:20:14;18.40;1.00
10864;DHT22;5485;37.558;126.950;2023-05-14T11:22:45;18.30;1.00
10864;DHT22;5485;37.558;126.950;2023-05-14T11:25:13;18.30;1.00
10864;DHT22;5485;37.558;126.950;2023-05-14T11:27:42;18.30;1.00
10864;DHT22;5485;37.558;126.950;2023-05-14T11:30:17;18.20;1.00
10864;DHT22;5485;37.558;126.950;2023-05-14T11:32:45;18.20;1.00
10864;DHT22;5485;37.558;126.950;2023-05-14T11:35:13;18.10;1.00
10864;DHT22;5485;37.558;126.950;2023-05-14T11:37:41;18.10;1.00
10864;DHT22;5485;37.558;126.950;2023-05-14T11:40:13;18.00;1.00
10864;DHT22;5485;37.558;126.950;2023-05-14T11:42:41;18.00;1.00
10864;DHT22;5485;37.558;126.950;2023-05-14T11:45:12;18.00;1.00
10864;DHT22;5485;37.558;126.950;2023-05-14T11:47:40;18.00;1.00
10864;DHT22;5485;37.558;126.950;2023-05-14T11:50:08;17.90;1.00
10864;DHT22;5485;37.558;126.950;2023-05-14T11:52:41;17.90;1.00
10864;DHT22;5485;37.558;126.950;2023-05-14T11:55:14;17.90;1.00
10864;DHT22;5485;37.558;126.950;2023-05-14T11:57:44;17.80;1.00
10864;DHT22;5485;37.558;126.950;2023-05-14T12:00:11;17.80;1.00
10864;DHT22;5485;37.558;126.950;2023-05-14T12:02:39;17.70;1.00
10864;DHT22;5485;37.558;126.950;2023-05-14T12:05:07;17.70;1.00
10864;DHT22;5485;37.558;126.950;2023-05-14T12:07:35;17.60;1.00
10864;DHT22;5485;37.558;126.950;2023-05-14T12:10:03;17.60;1.00
10864;DHT22;5485;37.558;126.950;2023-05-14T12:12:34;17.60;1.00
10864;DHT22;5485;37.558;126.950;2023-05-14T12:15:11;17.60;1.00
10864;DHT22;5485;37.558;126.950;2023-05-14T12:17:39;17.60;1.00
10864;DHT22;5485;37.558;126.950;2023-05-14T12:20:09;17.50;1.00
10864;DHT22;5485;37.558;126.950;2023-05-14T12:22:37;17.50;1.00
10864;DHT22;5485;37.558;126.950;2023-05-14T12:25:11;17.40;1.00
10864;DHT22;5485;37.558;126.950;2023-05-14T12:27:43;17.40;1.00
10864;DHT22;5485;37.558;126.950;2023-05-14T12:30:12;17.30;1.00
10864;DHT22;5485;37.558;126.950;2023-05-14T12:32:40;17.30;1.00
10864;DHT22;5485;37.558;126.950;2023-05-14T12:35:07;17.30;1.00
10864;DHT22;5485;37.558;126.950;2023-05-14T12:37:34;17.20;1.00
10864;DHT22;5485;37.558;126.950;2023-05-14T12:40:07;17.20;1.00
10864;DHT22;5485;37.558;126.950;2023-05-14T12:42:36;17.20;1.00
10864;DHT22;5485;37.558;126.950;2023-05-14T12:45:04;17.20;1.00
10864;DHT22;5485;37.558;126.950;2023-05-14T12:47:33;17.10;1.00
10864;DHT22;5485;37.558;126.950;2023-05-14T12:50:00;17.00;1.00
10864;DHT22;5485;37.558;126.950;2023-05-14T12:52:27;16.90;1.00
10864;DHT22;5485;37.558;126.950;2023-05-14T12:54:53;16.90;1.00
10864;DHT22;5485;37.558;126.950;2023-05-14T12:57:21;16.90;1.00
10864;DHT22;5485;37.558;126.950;2023-05-14T12:59:48;16.80;1.00
10864;DHT22;5485;37.558;126.950;2023-05-14T13:02:16;16.80;1.00
10864;DHT22;5485;37.558;126.950;2023-05-14T13:04:49;16.80;1.00
10864;DHT22;5485;37.558;126.950;2023-05-14T13:07:16;16.70;1.00
10864;DHT22;5485;37.558;126.950;2023-05-14T13:09:42;16.70;1.00
10864;DHT22;5485;37.558;126.950;2023-05-14T13:12:09;16.70;1.00
10864;DHT22;5485;37.558;126.950;2023-05-14T13:14:36;16.70;1.00
10864;DHT22;5485;37.558;126.950;2023-05-14T13:17:04;16.70;1.00
10864;DHT22;5485;37.558;126.950;2023-05-14T13:19:33;16.60;1.00
10864;DHT22;5485;37.558;126.950;2023-05-14T13:22:00;16.60;1.00
10864;DHT22;5485;37.558;126.950;2023-05-14T13:24:26;16.50;1.00
10864;DHT22;5485;37.558;126.950;2023-05-14T13:26:59;16.60;1.00
10864;DHT22;5485;37.558;126.950;2023-05-14T13:29:26;16.60;1.00
10864;DHT22;5485;37.558;126.950;2023-05-14T13:31:56;16.60;1.00
10864;DHT22;5485;37.558;126.950;2023-05-14T13:34:23;16.60;1.00
10864;DHT22;5485;37.558;126.950;2023-05-14T13:36:53;16.50;1.00
10864;DHT22;5485;37.558;126.950;2023-05-14T13:39:20;16.50;1.00
10864;DHT22;5485;37.558;126.950;2023-05-14T13:41:55;16.40;1.00
10864;DHT22;5485;37.558;126.950;2023-05-14T13:44:22;16.40;1.00
10864;DHT22;5485;37.558;126.950;2023-05-14T13:46:49;16.40;1.00
10864;DHT22;5485;37.558;126.950;2023-05-14T13:49:16;16.40;1.00
10864;DHT22;5485;37.558;126.950;2023-05-14T13:51:43;16.30;1.00
10864;DHT22;5485;37.558;126.950;2023-05-14T13:54:10;16.30;1.00
10864;DHT22;5485;37.558;126.950;2023-05-14T13:56:37;16.30;1.00
10864;DHT22;5485;37.558;126.950;2023-05-14T13:59:04;16.30;1.00
10864;DHT22;5485;37.558;126.950;2023-05-14T14:01:31;16.20;1.00
10864;DHT22;5485;37.558;126.950;2023-05-14T14:04:00;16.10;1.00
10864;DHT22;5485;37.558;126.950;2023-05-14T14:06:29;16.10;1.00
10864;DHT22;5485;37.558;126.950;2023-05-14T14:08:56;16.20;1.00
10864;DHT22;5485;37.558;126.950;2023-05-14T14:11:23;16.10;1.00
10864;DHT22;5485;37.558;126.950;2023-05-14T14:13:50;16.10;1.00
10864;DHT22;5485;37.558;126.950;2023-05-14T14:16:17;16.10;1.00
10864;DHT22;5485;37.558;126.950;2023-05-14T14:18:44;16.10;1.00
10864;DHT22;5485;37.558;126.950;2023-05-14T14:21:10;16.10;1.00
10864;DHT22;5485;37.558;126.950;2023-05-14T14:23:37;16.00;1.00
10864;DHT22;5485;37.558;126.950;2023-05-14T14:26:04;16.00;1.00
10864;DHT22;5485;37.558;126.950;2023-05-14T14:28:31;16.00;1.00
10864;DHT22;5485;37.558;126.950;2023-05-14T14:30:58;16.00;1.00
10864;DHT22;5485;37.558;126.950;2023-05-14T14:33:28;15.90;1.00
10864;DHT22;5485;37.558;126.950;2023-05-14T14:35:55;15.90;1.00
10864;DHT22;5485;37.558;126.950;2023-05-14T14:38:22;15.90;1.00
10864;DHT22;5485;37.558;126.950;2023-05-14T14:40:49;15.90;1.00
10864;DHT22;5485;37.558;126.950;2023-05-14T14:43:16;15.80;1.00
10864;DHT22;5485;37.558;126.950;2023-05-14T14:45:46;15.80;1.00
10864;DHT22;5485;37.558;126.950;2023-05-14T14:48:28;15.80;1.00
10864;DHT22;5485;37.558;126.950;2023-05-14T14:50:59;15.80;1.00
10864;DHT22;5485;37.558;126.950;2023-05-14T14:53:26;15.90;1.00
10864;DHT22;5485;37.558;126.950;2023-05-14T14:55:53;15.90;1.00
10864;DHT22;5485;37.558;126.950;2023-05-14T14:58:24;15.90;1.00
10864;DHT22;5485;37.558;126.950;2023-05-14T15:00:53;15.80;1.00
10864;DHT22;5485;37.558;126.950;2023-05-14T15:03:24;15.80;1.00
10864;DHT22;5485;37.558;126.950;2023-05-14T15:05:51;15.80;1.00
10864;DHT22;5485;37.558;126.950;2023-05-14T15:08:18;15.70;1.00
10864;DHT22;5485;37.558;126.950;2023-05-14T15:10:46;15.70;1.00
10864;DHT22;5485;37.558;126.950;2023-05-14T15:13:13;15.70;1.00
10864;DHT22;5485;37.558;126.950;2023-05-14T15:15:40;15.70;1.00
10864;DHT22;5485;37.558;126.950;2023-05-14T15:18:07;15.70;1.00
10864;DHT22;5485;37.558;126.950;2023-05-14T15:20:34;15.70;1.00
10864;DHT22;5485;37.558;126.950;2023-05-14T15:23:01;15.60;1.00
10864;DHT22;5485;37.558;126.950;2023-05-14T15:25:28;15.60;1.00
10864;DHT22;5485;37.558;126.950;2023-05-14T15:27:55;15.60;1.00
10864;DHT22;5485;37.558;126.950;2023-05-14T15:30:22;15.60;1.00
10864;DHT22;5485;37.558;126.950;2023-05-14T15:32:49;15.60;1.00
10864;DHT22;5485;37.558;126.950;2023-05-14T15:35:16;15.60;1.00
10864;DHT22;5485;37.558;126.950;2023-05-14T15:37:44;15.60;1.00
10864;DHT22;5485;37.558;126.950;2023-05-14T15:40:11;15.60;1.00
10864;DHT22;5485;37.558;126.950;2023-05-14T15:42:42;15.50;1.00